sensor_id;sensor_type;location;lat;lon;timestamp;pressure;altitude;pressure_sealevel;temperature;humidity
42105;BME280;68365;51.472;5.712;2023-04-28T00:01:48;101132.19;;;15.75;100.00
42105;BME280;68365;51.472;5.712;2023-04-28T00:04:14;101128.75;;;15.75;100.00
42105;BME280;68365;51.472;5.712;2023-04-28T00:06:40;101123.84;;;15.72;100.00
42105;BME280;68365;51.472;5.712;2023-04-28T00:09:06;101128.94;;;15.73;100.00
42105;BME280;68365;51.472;5.712;2023-04-28T00:11:36;101134.19;;;15.73;100.00
42105;BME280;68365;51.472;5.712;2023-04-28T00:14:03;101122.22;;;15.70;100.00
42105;BME280;68365;51.472;5.712;2023-04-28T00:16:30;101121.41;;;15.70;100.00
42105;BME280;68365;51.472;5.712;2023-04-28T00:18:55;101113.38;;;15.72;100.00
42105;BME280;68365;51.472;5.712;2023-04-28T00:21:21;101113.56;;;15.70;100.00
42105;BME280;68365;51.472;5.712;2023-04-28T00:23:47;101099.69;;;15.69;100.00
42105;BME280;68365;51.472;5.712;2023-04-28T00:26:13;101103.75;;;15.72;100.00
42105;BME280;68365;51.472;5.712;2023-04-28T00:28:39;101104.09;;;15.69;100.00
42105;BME280;68365;51.472;5.712;2023-04-28T00:31:13;101107.34;;;15.71;100.00
42105;BME280;68365;51.472;5.712;2023-04-28T00:33:41;101100.47;;;15.70;100.00
42105;BME280;68365;51.472;5.712;2023-04-28T00:36:07;101101.50;;;15.69;100.00
42105;BME280;68365;51.472;5.712;2023-04-28T00:38:34;101092.00;;;15.68;100.00
42105;BME280;68365;51.472;5.712;2023-04-28T00:41:00;101079.09;;;15.66;100.00
42105;BME280;68365;51.472;5.712;2023-04-28T00:43:26;101085.16;;;15.67;100.00
42105;BME280;68365;51.472;5.712;2023-04-28T00:45:52;101072.88;;;15.67;100.00
42105;BME280;68365;51.472;5.712;2023-04-28T00:48:18;101077.47;;;15.65;100.00
42105;BME280;68365;51.472;5.712;2023-04-28T00:50:45;101068.63;;;15.66;100.00
42105;BME280;68365;51.472;5.712;2023-04-28T00:53:12;101071.44;;;15.65;100.00
42105;BME280;68365;51.472;5.712;2023-04-28T00:55:38;101068.84;;;15.65;100.00
42105;BME280;68365;51.472;5.712;2023-04-28T00:58:05;101070.63;;;15.64;100.00
42105;BME280;68365;51.472;5.712;2023-04-28T01:00:32;101058.38;;;15.65;100.00
42105;BME280;68365;51.472;5.712;2023-04-28T01:02:58;101042.84;;;15.63;100.00
42105;BME280;68365;51.472;5.712;2023-04-28T01:05:28;101053.31;;;15.63;100.00
42105;BME280;68365;51.472;5.712;2023-04-28T01:07:55;101048.06;;;15.63;100.00
42105;BME280;68365;51.472;5.712;2023-04-28T01:10:21;101040.41;;;15.62;100.00
42105;BME280;68365;51.472;5.712;2023-04-28T01:12:46;101050.25;;;15.60;100.00
42105;BME280;68365;51.472;5.712;2023-04-28T01:15:18;101045.81;;;15.60;100.00
42105;BME280;68365;51.472;5.712;2023-04-28T01:17:48;101050.69;;;15.63;100.00
42105;BME280;68365;51.472;5.712;2023-04-28T01:20:14;101038.78;;;15.61;100.00
42105;BME280;68365;51.472;5.712;2023-04-28T01:22:40;101036.19;;;15.61;100.00
42105;BME280;68365;51.472;5.712;2023-04-28T01:25:06;101028.50;;;15.59;100.00
42105;BME280;68365;51.472;5.712;2023-04-28T01:27:32;101030.09;;;15.60;100.00
42105;BME280;68365;51.472;5.712;2023-04-28T01:29:58;101023.44;;;15.58;100.00
42105;BME280;68365;51.472;5.712;2023-04-28T01:32:24;101015.59;;;15.58;100.00
42105;BME280;68365;51.472;5.712;2023-04-28T01:34:49;101008.56;;;15.58;100.00
42105;BME280;68365;51.472;5.712;2023-04-28T01:37:16;101020.66;;;15.59;100.00
42105;BME280;68365;51.472;5.712;2023-04-28T01:39:42;101018.03;;;15.59;100.00
42105;BME280;68365;51.472;5.712;2023-04-28T01:42:07;101017.41;;;15.57;100.00
42105;BME280;68365;51.472;5.712;2023-04-28T01:44:33;101007.94;;;15.56;100.00
42105;BME280;68365;51.472;5.712;2023-04-28T01:46:59;101002.69;;;15.56;100.00
42105;BME280;68365;51.472;5.712;2023-04-28T01:49:25;100996.84;;;15.54;100.00
42105;BME280;68365;51.472;5.712;2023-04-28T01:51:51;100991.59;;;15.54;100.00
42105;BME280;68365;51.472;5.712;2023-04-28T01:54:17;100985.38;;;15.55;100.00
42105;BME280;68365;51.472;5.712;2023-04-28T01:56:42;100993.25;;;15.55;100.00
42105;BME280;68365;51.472;5.712;2023-04-28T01:59:08;100999.91;;;15.58;100.00
42105;BME280;68365;51.472;5.712;2023-04-28T02:01:34;100993.41;;;15.54;100.00
42105;BME280;68365;51.472;5.712;2023-04-28T02:04:00;100989.38;;;15.51;100.00
42105;BME280;68365;51.472;5.712;2023-04-28T02:06:26;100996.03;;;15.54;100.00
42105;BME280;68365;51.472;5.712;2023-04-28T02:08:52;100995.22;;;15.53;100.00
42105;BME280;68365;51.472;5.712;2023-04-28T02:11:18;100984.13;;;15.51;100.00
42105;BME280;68365;51.472;5.712;2023-04-28T02:13:44;100967.81;;;15.49;100.00
42105;BME280;68365;51.472;5.712;2023-04-28T02:16:09;100981.13;;;15.54;100.00
42105;BME280;68365;51.472;5.712;2023-04-28T02:18:35;100983.13;;;15.52;100.00
42105;BME280;68365;51.472;5.712;2023-04-28T02:21:09;100980.50;;;15.52;100.00
42105;BME280;68365;51.472;5.712;2023-04-28T02:23:39;100982.31;;;15.52;100.00
42105;BME280;68365;51.472;5.712;2023-04-28T02:26:05;100978.28;;;15.49;100.00
42105;BME280;68365;51.472;5.712;2023-04-28T02:28:31;100983.13;;;15.52;100.00
42105;BME280;68365;51.472;5.712;2023-04-28T02:31:08;100977.09;;;15.52;100.00
42105;BME280;68365;51.472;5.712;2023-04-28T02:33:35;100974.31;;;15.53;100.00
42105;BME280;68365;51.472;5.712;2023-04-28T02:36:02;100975.28;;;15.52;100.00
42105;BME280;68365;51.472;5.712;2023-04-28T02:38:28;100964.00;;;15.52;100.00
42105;BME280;68365;51.472;5.712;2023-04-28T02:40:59;100955.34;;;15.51;100.00
42105;BME280;68365;51.472;5.712;2023-04-28T02:43:26;100952.13;;;15.49;100.00
42105;BME280;68365;51.472;5.712;2023-04-28T02:45:53;100947.69;;;15.49;100.00
42105;BME280;68365;51.472;5.712;2023-04-28T02:48:19;100940.66;;;15.50;100.00
42105;BME280;68365;51.472;5.712;2023-04-28T02:50:45;100930.56;;;15.47;100.00
42105;BME280;68365;51.472;5.712;2023-04-28T02:53:11;100920.72;;;15.49;100.00
42105;BME280;68365;51.472;5.712;2023-04-28T02:55:37;100907.19;;;15.45;100.00
42105;BME280;68365;51.472;5.712;2023-04-28T02:58:03;100915.50;;;15.49;100.00
42105;BME280;68365;51.472;5.712;2023-04-28T03:00:29;100903.41;;;15.48;100.00
42105;BME280;68365;51.472;5.712;2023-04-28T03:02:55;100892.94;;;15.48;100.00
42105;BME280;68365;51.472;5.712;2023-04-28T03:05:21;100884.28;;;15.47;100.00
42105;BME280;68365;51.472;5.712;2023-04-28T03:07:47;100869.59;;;15.46;100.00
42105;BME280;68365;51.472;5.712;2023-04-28T03:10:12;100848.22;;;15.43;100.00
42105;BME280;68365;51.472;5.712;2023-04-28T03:12:38;100859.13;;;15.46;100.00
42105;BME280;68365;51.472;5.712;2023-04-28T03:15:04;100886.91;;;15.47;100.00
42105;BME280;68365;51.472;5.712;2023-04-28T03:17:33;100895.56;;;15.48;100.00
42105;BME280;68365;51.472;5.712;2023-04-28T03:20:01;100899.00;;;15.48;100.00
42105;BME280;68365;51.472;5.712;2023-04-28T03:22:27;100899.63;;;15.51;100.00
42105;BME280;68365;51.472;5.712;2023-04-28T03:24:53;100894.38;;;15.51;100.00
42105;BME280;68365;51.472;5.712;2023-04-28T03:27:19;100885.72;;;15.50;100.00
42105;BME280;68365;51.472;5.712;2023-04-28T03:29:44;100886.72;;;15.49;100.00
42105;BME280;68365;51.472;5.712;2023-04-28T03:32:10;100891.16;;;15.48;100.00
42105;BME280;68365;51.472;5.712;2023-04-28T03:34:36;100890.56;;;15.53;100.00
42105;BME280;68365;51.472;5.712;2023-04-28T03:37:02;100887.06;;;15.46;100.00
42105;BME280;68365;51.472;5.712;2023-04-28T03:39:28;100899.63;;;15.51;100.00
42105;BME280;68365;51.472;5.712;2023-04-28T03:41:53;100895.19;;;15.51;100.00
42105;BME280;68365;51.472;5.712;2023-04-28T03:44:19;100891.31;;;15.47;100.00
42105;BME280;68365;51.472;5.712;2023-04-28T03:46:46;100896.56;;;15.47;100.00
42105;BME280;68365;51.472;5.712;2023-04-28T03:49:13;100891.31;;;15.47;100.00
42105;BME280;68365;51.472;5.712;2023-04-28T03:51:39;100883.66;;;15.45;100.00
42105;BME280;68365;51.472;5.712;2023-04-28T03:54:04;100876.19;;;15.42;100.00
42105;BME280;68365;51.472;5.712;2023-04-28T03:56:30;100874.38;;;15.43;100.00
42105;BME280;68365;51.472;5.712;2023-04-28T03:58:56;100884.28;;;15.47;100.00
42105;BME280;68365;51.472;5.712;2023-04-28T04:01:22;100868.97;;;15.44;100.00
42105;BME280;68365;51.472;5.712;2023-04-28T04:03:48;100876.81;;;15.44;100.00
42105;BME280;68365;51.472;5.712;2023-04-28T04:06:14;100874.38;;;15.43;100.00
42105;BME280;68365;51.472;5.712;2023-04-28T04:08:40;100882.47;;;15.48;100.00
42105;BME280;68365;51.472;5.712;2023-04-28T04:11:06;100867.53;;;15.42;100.00
42105;BME280;68365;51.472;5.712;2023-04-28T04:13:32;100865.97;;;15.47;100.00
42105;BME280;68365;51.472;5.712;2023-04-28T04:15:58;100874.22;;;15.44;100.00
42105;BME280;68365;51.472;5.712;2023-04-28T04:18:24;100872.41;;;15.45;100.00
42105;BME280;68365;51.472;5.712;2023-04-28T04:20:50;100863.94;;;15.43;100.00
42105;BME280;68365;51.472;5.712;2023-04-28T04:23:18;100872.56;;;15.43;100.00
42105;BME280;68365;51.472;5.712;2023-04-28T04:25:44;100857.06;;;15.42;100.00
42105;BME280;68365;51.472;5.712;2023-04-28T04:28:09;100863.75;;;15.44;100.00
42105;BME280;68365;51.472;5.712;2023-04-28T04:30:35;100861.31;;;15.43;100.00
42105;BME280;68365;51.472;5.712;2023-04-28T04:33:01;100857.06;;;15.42;100.00
42105;BME280;68365;51.472;5.712;2023-04-28T04:35:27;100856.88;;;15.43;100.00
42105;BME280;68365;51.472;5.712;2023-04-28T04:37:53;100849.84;;;15.44;100.00
42105;BME280;68365;51.472;5.712;2023-04-28T04:40:19;100847.22;;;15.44;100.00
42105;BME280;68365;51.472;5.712;2023-04-28T04:42:44;100845.00;;;15.41;100.00
42105;BME280;68365;51.472;5.712;2023-04-28T04:45:10;100852.28;;;15.45;100.00
42105;BME280;68365;51.472;5.712;2023-04-28T04:47:37;100857.69;;;15.44;100.00
42105;BME280;68365;51.472;5.712;2023-04-28T04:50:03;100847.78;;;15.39;100.00
42105;BME280;68365;51.472;5.712;2023-04-28T04:52:28;100845.00;;;15.41;100.00
42105;BME280;68365;51.472;5.712;2023-04-28T04:54:54;100842.56;;;15.39;100.00
42105;BME280;68365;51.472;5.712;2023-04-28T04:57:21;100836.97;;;15.42;100.00
42105;BME280;68365;51.472;5.712;2023-04-28T04:59:47;100830.53;;;15.45;100.00
42105;BME280;68365;51.472;5.712;2023-04-28T05:02:13;100829.75;;;15.44;100.00
42105;BME280;68365;51.472;5.712;2023-04-28T05:04:38;100828.09;;;15.43;100.00
42105;BME280;68365;51.472;5.712;2023-04-28T05:07:04;100825.50;;;15.43;100.00
42105;BME280;68365;51.472;5.712;2023-04-28T05:09:30;100826.50;;;15.42;100.00
42105;BME280;68365;51.472;5.712;2023-04-28T05:11:56;100815.22;;;15.42;100.00
42105;BME280;68365;51.472;5.712;2023-04-28T05:14:22;100827.94;;;15.45;100.00
42105;BME280;68365;51.472;5.712;2023-04-28T05:16:48;100829.13;;;15.42;100.00
42105;BME280;68365;51.472;5.712;2023-04-28T05:19:14;100836.56;;;15.45;100.00
42105;BME280;68365;51.472;5.712;2023-04-28T05:21:40;100835.59;;;15.46;100.00
42105;BME280;68365;51.472;5.712;2023-04-28T05:24:06;100832.34;;;15.44;100.00
42105;BME280;68365;51.472;5.712;2023-04-28T05:26:32;100828.91;;;15.44;100.00
42105;BME280;68365;51.472;5.712;2023-04-28T05:28:58;100825.66;;;15.42;100.00
42105;BME280;68365;51.472;5.712;2023-04-28T05:31:23;100831.72;;;15.42;100.00
42105;BME280;68365;51.472;5.712;2023-04-28T05:33:49;100828.09;;;15.43;100.00
42105;BME280;68365;51.472;5.712;2023-04-28T05:36:15;100824.69;;;15.43;100.00
42105;BME280;68365;51.472;5.712;2023-04-28T05:38:42;100819.28;;;15.44;100.00
42105;BME280;68365;51.472;5.712;2023-04-28T05:41:08;100816.44;;;15.46;100.00
42105;BME280;68365;51.472;5.712;2023-04-28T05:43:34;100824.69;;;15.43;100.00
42105;BME280;68365;51.472;5.712;2023-04-28T05:46:00;100821.69;;;15.46;100.00
42105;BME280;68365;51.472;5.712;2023-04-28T05:48:26;100809.19;;;15.41;100.00
42105;BME280;68365;51.472;5.712;2023-04-28T05:50:52;100819.28;;;15.44;100.00
42105;BME280;68365;51.472;5.712;2023-04-28T05:53:19;100814.41;;;15.41;100.00
42105;BME280;68365;51.472;5.712;2023-04-28T05:55:46;100829.34;;;15.47;100.00
42105;BME280;68365;51.472;5.712;2023-04-28T05:58:11;100825.31;;;15.45;100.00
42105;BME280;68365;51.472;5.712;2023-04-28T06:00:37;100829.75;;;15.44;100.00
42105;BME280;68365;51.472;5.712;2023-04-28T06:03:03;100829.34;;;15.47;100.00
42105;BME280;68365;51.472;5.712;2023-04-28T06:05:29;100821.69;;;15.46;100.00
42105;BME280;68365;51.472;5.712;2023-04-28T06:07:55;100830.72;;;15.43;100.00
42105;BME280;68365;51.472;5.712;2023-04-28T06:10:22;100827.94;;;15.45;100.00
42105;BME280;68365;51.472;5.712;2023-04-28T06:12:48;100824.50;;;15.44;100.00
42105;BME280;68365;51.472;5.712;2023-04-28T06:15:13;100835.78;;;15.45;100.00
42105;BME280;68365;51.472;5.712;2023-04-28T06:17:39;100831.97;;;15.47;100.00
42105;BME280;68365;51.472;5.712;2023-04-28T06:20:06;100834.59;;;15.47;100.00
42105;BME280;68365;51.472;5.712;2023-04-28T06:22:32;100828.53;;;15.47;100.00
42105;BME280;68365;51.472;5.712;2023-04-28T06:24:58;100824.28;;;15.46;100.00
42105;BME280;68365;51.472;5.712;2023-04-28T06:27:24;100816.53;;;15.53;100.00
42105;BME280;68365;51.472;5.712;2023-04-28T06:29:50;100821.31;;;15.49;100.00
42105;BME280;68365;51.472;5.712;2023-04-28T06:32:16;100824.56;;;15.51;100.00
42105;BME280;68365;51.472;5.712;2023-04-28T06:34:42;100821.53;;;15.54;100.00
42105;BME280;68365;51.472;5.712;2023-04-28T06:37:07;100819.31;;;15.51;100.00
42105;BME280;68365;51.472;5.712;2023-04-28T06:39:33;100815.50;;;15.54;100.00
42105;BME280;68365;51.472;5.712;2023-04-28T06:41:59;100819.75;;;15.55;100.00
42105;BME280;68365;51.472;5.712;2023-04-28T06:44:26;100809.47;;;15.53;100.00
42105;BME280;68365;51.472;5.712;2023-04-28T06:46:52;100821.34;;;15.56;100.00
42105;BME280;68365;51.472;5.712;2023-04-28T06:49:18;100814.72;;;15.53;100.00
42105;BME280;68365;51.472;5.712;2023-04-28T06:51:44;100810.53;;;15.59;100.00
42105;BME280;68365;51.472;5.712;2023-04-28T06:54:10;100802.88;;;15.57;100.00
42105;BME280;68365;51.472;5.712;2023-04-28T06:56:36;100805.91;;;15.61;100.00
42105;BME280;68365;51.472;5.712;2023-04-28T06:59:02;100806.91;;;15.60;100.00
42105;BME280;68365;51.472;5.712;2023-04-28T07:01:27;100795.00;;;15.57;100.00
42105;BME280;68365;51.472;5.712;2023-04-28T07:03:53;100793.81;;;15.60;100.00
42105;BME280;68365;51.472;5.712;2023-04-28T07:06:19;100798.06;;;15.61;100.00
42105;BME280;68365;51.472;5.712;2023-04-28T07:08:45;100807.34;;;15.63;100.00
42105;BME280;68365;51.472;5.712;2023-04-28T07:11:11;100807.69;;;15.60;100.00
42105;BME280;68365;51.472;5.712;2023-04-28T07:13:36;100798.69;;;15.63;100.00
42105;BME280;68365;51.472;5.712;2023-04-28T07:16:03;100803.31;;;15.61;100.00
42105;BME280;68365;51.472;5.712;2023-04-28T07:18:29;100796.25;;;15.61;100.00
42105;BME280;68365;51.472;5.712;2023-04-28T07:20:54;100799.22;;;15.58;100.00
42105;BME280;68365;51.472;5.712;2023-04-28T07:23:20;100805.72;;;15.62;100.00
42105;BME280;68365;51.472;5.712;2023-04-28T07:25:46;100800.06;;;15.59;100.00
42105;BME280;68365;51.472;5.712;2023-04-28T07:28:12;100796.47;;;15.66;100.00
42105;BME280;68365;51.472;5.712;2023-04-28T07:30:38;100803.34;;;15.67;100.00
42105;BME280;68365;51.472;5.712;2023-04-28T07:33:04;100797.50;;;15.65;100.00
42105;BME280;68365;51.472;5.712;2023-04-28T07:35:30;100793.25;;;15.64;100.00
42105;BME280;68365;51.472;5.712;2023-04-28T07:37:56;100788.00;;;15.64;100.00
42105;BME280;68365;51.472;5.712;2023-04-28T07:40:23;100801.97;;;15.72;100.00
42105;BME280;68365;51.472;5.712;2023-04-28T07:42:49;100804.56;;;15.72;100.00
42105;BME280;68365;51.472;5.712;2023-04-28T07:45:15;100803.16;;;15.69;100.00
42105;BME280;68365;51.472;5.712;2023-04-28T07:47:41;100803.97;;;15.69;100.00
42105;BME280;68365;51.472;5.712;2023-04-28T07:50:07;100805.84;;;15.76;100.00
42105;BME280;68365;51.472;5.712;2023-04-28T07:52:34;100801.41;;;15.76;100.00
42105;BME280;68365;51.472;5.712;2023-04-28T07:55:00;100795.19;;;15.77;100.00
42105;BME280;68365;51.472;5.712;2023-04-28T07:57:27;100801.22;;;15.78;100.00
42105;BME280;68365;51.472;5.712;2023-04-28T07:59:56;100795.81;;;15.79;100.00
42105;BME280;68365;51.472;5.712;2023-04-28T08:02:22;100802.28;;;15.83;100.00
42105;BME280;68365;51.472;5.712;2023-04-28T08:04:47;100797.41;;;15.80;100.00
42105;BME280;68365;51.472;5.712;2023-04-28T08:07:13;100803.44;;;15.81;100.00
42105;BME280;68365;51.472;5.712;2023-04-28T08:09:39;100810.06;;;15.77;100.00
42105;BME280;68365;51.472;5.712;2023-04-28T08:12:07;100811.50;;;15.79;100.00
42105;BME280;68365;51.472;5.712;2023-04-28T08:14:33;100807.25;;;15.78;100.00
42105;BME280;68365;51.472;5.712;2023-04-28T08:16:59;100810.06;;;15.77;100.00
42105;BME280;68365;51.472;5.712;2023-04-28T08:19:25;100804.81;;;15.77;100.00
42105;BME280;68365;51.472;5.712;2023-04-28T08:21:51;100808.91;;;15.79;100.00
42105;BME280;68365;51.472;5.712;2023-04-28T08:24:17;100807.88;;;15.80;100.00
42105;BME280;68365;51.472;5.712;2023-04-28T08:26:43;100805.88;;;15.82;100.00
42105;BME280;68365;51.472;5.712;2023-04-28T08:29:09;100809.69;;;15.80;100.00
42105;BME280;68365;51.472;5.712;2023-04-28T08:31:35;100810.69;;;15.79;100.00
42105;BME280;68365;51.472;5.712;2023-04-28T08:34:00;100815.53;;;15.82;100.00
42105;BME280;68365;51.472;5.712;2023-04-28T08:36:27;100807.88;;;15.80;100.00
42105;BME280;68365;51.472;5.712;2023-04-28T08:38:57;100807.88;;;15.80;100.00
42105;BME280;68365;51.472;5.712;2023-04-28T08:41:24;100803.66;;;15.79;100.00
42105;BME280;68365;51.472;5.712;2023-04-28T08:43:53;100813.53;;;15.84;100.00
42105;BME280;68365;51.472;5.712;2023-04-28T08:46:20;100811.69;;;15.78;100.00
42105;BME280;68365;51.472;5.712;2023-04-28T08:48:48;100813.91;;;15.81;100.00
42105;BME280;68365;51.472;5.712;2023-04-28T08:51:24;100811.72;;;15.84;100.00
42105;BME280;68365;51.472;5.712;2023-04-28T08:53:53;100808.53;;;15.89;100.00
42105;BME280;68365;51.472;5.712;2023-04-28T08:56:20;100802.16;;;15.98;100.00
42105;BME280;68365;51.472;5.712;2023-04-28T08:58:49;100807.03;;;16.56;100.00
42105;BME280;68365;51.472;5.712;2023-04-28T09:01:16;100817.38;;;16.23;100.00
42105;BME280;68365;51.472;5.712;2023-04-28T09:03:42;100810.69;;;16.14;100.00
42105;BME280;68365;51.472;5.712;2023-04-28T09:06:08;100813.28;;;16.07;100.00
42105;BME280;68365;51.472;5.712;2023-04-28T09:08:34;100824.53;;;16.01;100.00
42105;BME280;68365;51.472;5.712;2023-04-28T09:11:07;100820.28;;;16.00;100.00
42105;BME280;68365;51.472;5.712;2023-04-28T09:13:34;100814.22;;;15.99;100.00
42105;BME280;68365;51.472;5.712;2023-04-28T09:16:01;100815.00;;;15.93;100.00
42105;BME280;68365;51.472;5.712;2023-04-28T09:18:29;100813.34;;;15.57;100.00
42105;BME280;68365;51.472;5.712;2023-04-28T09:21:08;100804.75;;;15.42;100.00
42105;BME280;68365;51.472;5.712;2023-04-28T09:23:48;100811.22;;;15.46;100.00
42105;BME280;68365;51.472;5.712;2023-04-28T09:26:15;100816.94;;;15.56;100.00
42105;BME280;68365;51.472;5.712;2023-04-28T09:28:41;100816.78;;;15.64;100.00
42105;BME280;68365;51.472;5.712;2023-04-28T09:31:24;100808.81;;;15.73;100.00
42105;BME280;68365;51.472;5.712;2023-04-28T09:33:59;100814.06;;;15.73;100.00
42105;BME280;68365;51.472;5.712;2023-04-28T09:36:29;100812.06;;;15.75;100.00
42105;BME280;68365;51.472;5.712;2023-04-28T09:38:58;100806.47;;;15.78;100.00
42105;BME280;68365;51.472;5.712;2023-04-28T09:41:42;100811.28;;;15.81;100.00
42105;BME280;68365;51.472;5.712;2023-04-28T09:44:17;100805.09;;;15.60;100.00
42105;BME280;68365;51.472;5.712;2023-04-28T09:46:45;100814.03;;;15.44;100.00
42105;BME280;68365;51.472;5.712;2023-04-28T09:49:11;100807.44;;;15.48;100.00
42105;BME280;68365;51.472;5.712;2023-04-28T09:51:38;100808.13;;;15.64;100.00
42105;BME280;68365;51.472;5.712;2023-04-28T09:54:05;100813.63;;;15.69;100.00
42105;BME280;68365;51.472;5.712;2023-04-28T09:56:33;100809.19;;;15.69;100.00
42105;BME280;68365;51.472;5.712;2023-04-28T09:59:00;100819.03;;;15.67;100.00
42105;BME280;68365;51.472;5.712;2023-04-28T10:01:37;100811.63;;;15.71;100.00
42105;BME280;68365;51.472;5.712;2023-04-28T10:04:06;100816.25;;;15.69;100.00
42105;BME280;68365;51.472;5.712;2023-04-28T10:06:35;100819.13;;;15.74;100.00
42105;BME280;68365;51.472;5.712;2023-04-28T10:09:05;100811.63;;;15.71;100.00
42105;BME280;68365;51.472;5.712;2023-04-28T10:11:32;100824.16;;;15.76;100.00
42105;BME280;68365;51.472;5.712;2023-04-28T10:13:59;100826.59;;;15.77;100.00
42105;BME280;68365;51.472;5.712;2023-04-28T10:16:43;100822.97;;;15.78;100.00
42105;BME280;68365;51.472;5.712;2023-04-28T10:20:14;100826.44;;;15.85;100.00
42105;BME280;68365;51.472;5.712;2023-04-28T11:24:17;100791.84;;;16.38;100.00
42105;BME280;68365;51.472;5.712;2023-04-28T11:45:55;100773.16;;;16.48;100.00
42105;BME280;68365;51.472;5.712;2023-04-28T11:48:22;100769.75;;;16.61;100.00
42105;BME280;68365;51.472;5.712;2023-04-28T11:50:54;100775.41;;;16.58;100.00
42105;BME280;68365;51.472;5.712;2023-04-28T11:54:05;100786.88;;;16.57;100.00
42105;BME280;68365;51.472;5.712;2023-04-28T11:57:43;100779.44;;;16.60;100.00
42105;BME280;68365;51.472;5.712;2023-04-28T12:22:49;100790.88;;;16.46;100.00
42105;BME280;68365;51.472;5.712;2023-04-28T12:25:53;100793.72;;;16.51;100.00
42105;BME280;68365;51.472;5.712;2023-04-28T12:35:28;100801.94;;;16.41;100.00
42105;BME280;68365;51.472;5.712;2023-04-28T12:37:57;100813.63;;;16.39;100.00
42105;BME280;68365;51.472;5.712;2023-04-28T12:40:24;100810.63;;;16.42;100.00
42105;BME280;68365;51.472;5.712;2023-04-28T12:42:50;100808.59;;;16.44;100.00
42105;BME280;68365;51.472;5.712;2023-04-28T12:45:44;100812.84;;;16.45;100.00
42105;BME280;68365;51.472;5.712;2023-04-28T12:48:13;100818.31;;;16.50;100.00
42105;BME280;68365;51.472;5.712;2023-04-28T12:50:40;100830.78;;;16.48;100.00
42105;BME280;68365;51.472;5.712;2023-04-28T12:57:09;100815.50;;;16.58;100.00
42105;BME280;68365;51.472;5.712;2023-04-28T12:59:40;100813.81;;;16.37;100.00
42105;BME280;68365;51.472;5.712;2023-04-28T13:05:46;100825.28;;;16.29;100.00
42105;BME280;68365;51.472;5.712;2023-04-28T13:08:19;100822.00;;;16.21;100.00
42105;BME280;68365;51.472;5.712;2023-04-28T13:11:15;100825.63;;;16.20;100.00
42105;BME280;68365;51.472;5.712;2023-04-28T13:14:04;100817.72;;;16.06;100.00
42105;BME280;68365;51.472;5.712;2023-04-28T13:16:52;100819.31;;;16.07;100.00
42105;BME280;68365;51.472;5.712;2023-04-28T13:30:44;100843.53;;;16.51;100.00
42105;BME280;68365;51.472;5.712;2023-04-28T13:36:50;100853.78;;;16.53;100.00
42105;BME280;68365;51.472;5.712;2023-04-28T13:39:26;100843.47;;;16.44;100.00
42105;BME280;68365;51.472;5.712;2023-04-28T13:42:18;100849.13;;;16.41;100.00
42105;BME280;68365;51.472;5.712;2023-04-28T13:46:02;100860.19;;;16.43;100.00
42105;BME280;68365;51.472;5.712;2023-04-28T13:48:33;100852.53;;;16.42;100.00
42105;BME280;68365;51.472;5.712;2023-04-28T13:54:22;100862.41;;;16.40;100.00
42105;BME280;68365;51.472;5.712;2023-04-28T13:56:52;100865.03;;;16.40;100.00
42105;BME280;68365;51.472;5.712;2023-04-28T14:02:14;100871.34;;;16.59;100.00
42105;BME280;68365;51.472;5.712;2023-04-28T14:04:50;100861.06;;;16.57;100.00
42105;BME280;68365;51.472;5.712;2023-04-28T14:08:07;100853.16;;;16.50;100.00
42105;BME280;68365;51.472;5.712;2023-04-28T14:10:40;100847.97;;;16.57;100.00
42105;BME280;68365;51.472;5.712;2023-04-28T14:16:31;100847.38;;;16.55;100.00
42105;BME280;68365;51.472;5.712;2023-04-28T14:19:35;100849.75;;;16.57;100.00
42105;BME280;68365;51.472;5.712;2023-04-28T14:26:02;100857.28;;;16.66;100.00
42105;BME280;68365;51.472;5.712;2023-04-28T14:29:00;100849.16;;;16.55;100.00
42105;BME280;68365;51.472;5.712;2023-04-28T14:32:04;100851.59;;;16.56;100.00
42105;BME280;68365;51.472;5.712;2023-04-28T14:34:30;100865.72;;;16.55;100.00
42105;BME280;68365;51.472;5.712;2023-04-28T14:49:40;100877.81;;;16.63;100.00
42105;BME280;68365;51.472;5.712;2023-04-28T15:07:46;100872.78;;;16.61;100.00
42105;BME280;68365;51.472;5.712;2023-04-28T15:32:30;100881.25;;;16.63;100.00
42105;BME280;68365;51.472;5.712;2023-04-28T15:34:57;100878.84;;;16.68;100.00
42105;BME280;68365;51.472;5.712;2023-04-28T15:40:49;100892.59;;;16.77;100.00
42105;BME280;68365;51.472;5.712;2023-04-28T15:43:15;100893.66;;;16.83;100.00
42105;BME280;68365;51.472;5.712;2023-04-28T15:45:44;100890.66;;;16.86;100.00
42105;BME280;68365;51.472;5.712;2023-04-28T15:48:27;100899.50;;;16.85;100.00
42105;BME280;68365;51.472;5.712;2023-04-28T15:51:12;100898.28;;;16.81;100.00
42105;BME280;68365;51.472;5.712;2023-04-28T15:59:46;100903.75;;;16.86;100.00
42105;BME280;68365;51.472;5.712;2023-04-28T16:02:40;100901.94;;;16.86;100.00
42105;BME280;68365;51.472;5.712;2023-04-28T16:05:07;100907.31;;;16.72;100.00
42105;BME280;68365;51.472;5.712;2023-04-28T16:11:20;100911.69;;;16.64;100.00
42105;BME280;68365;51.472;5.712;2023-04-28T16:13:49;100906.88;;;16.68;100.00
42105;BME280;68365;51.472;5.712;2023-04-28T16:35:39;100914.31;;;16.64;100.00
42105;BME280;68365;51.472;5.712;2023-04-28T16:38:23;100906.84;;;16.61;100.00
42105;BME280;68365;51.472;5.712;2023-04-28T16:48:44;100914.50;;;16.63;100.00